createdAt,value
2022-10-22T00:01:47.452Z,14.29
2022-10-22T00:04:17.088Z,14.21
2022-10-22T00:06:46.949Z,14.09
2022-10-22T00:09:17.686Z,14.05
2022-10-22T00:11:47.434Z,14.06
2022-10-22T00:14:17.100Z,14.18
2022-10-22T00:16:49.358Z,14.16
2022-10-22T00:19:18.991Z,14.22
2022-10-22T00:21:48.684Z,14.23
2022-10-22T00:24:18.379Z,14.09
2022-10-22T00:26:48.090Z,14.13
2022-10-22T00:29:18.843Z,14.10
2022-10-22T00:31:52.471Z,14.09
2022-10-22T00:34:23.162Z,14.13
2022-10-22T00:36:53.499Z,14.13
2022-10-22T00:39:25.548Z,14.12
2022-10-22T00:41:57.299Z,13.91
2022-10-22T00:44:56.982Z,13.93
2022-10-22T00:47:33.157Z,14.08
2022-10-22T00:52:53.898Z,14.07
2022-10-22T00:55:25.131Z,14.06
2022-10-22T00:57:57.012Z,14.09
2022-10-22T01:00:27.005Z,14.11
2022-10-22T01:03:00.912Z,13.96
2022-10-22T01:05:32.309Z,13.91
2022-10-22T01:08:02.448Z,13.93
2022-10-22T01:10:45.388Z,13.85
2022-10-22T01:13:25.435Z,13.85
2022-10-22T01:16:03.348Z,13.87
2022-10-22T01:18:43.559Z,13.73
2022-10-22T01:21:19.672Z,13.64
2022-10-22T01:24:18.257Z,13.60
2022-10-22T01:27:03.141Z,13.67
2022-10-22T01:29:39.360Z,13.52
2022-10-22T01:32:13.889Z,13.66
2022-10-22T01:34:46.873Z,13.76
2022-10-22T01:37:18.365Z,13.53
2022-10-22T01:39:49.374Z,13.70
2022-10-22T01:42:19.277Z,13.70
2022-10-22T01:44:51.663Z,13.63
2022-10-22T01:47:35.606Z,13.65
2022-10-22T01:50:23.195Z,13.71
2022-10-22T01:53:09.905Z,13.70
2022-10-22T01:55:51.177Z,13.70
2022-10-22T01:58:31.453Z,13.73
2022-10-22T02:01:11.683Z,13.66
2022-10-22T02:03:44.812Z,13.70
2022-10-22T02:06:20.508Z,13.72
2022-10-22T02:08:53.246Z,13.74
2022-10-22T02:11:23.360Z,13.77
2022-10-22T02:13:57.776Z,13.77
2022-10-22T02:16:34.601Z,13.81
2022-10-22T02:19:08.804Z,13.79
2022-10-22T02:21:38.760Z,13.71
2022-10-22T02:24:09.310Z,13.76
2022-10-22T02:26:43.370Z,13.74
2022-10-22T02:29:17.034Z,13.74
2022-10-22T02:31:51.791Z,13.77
2022-10-22T02:34:26.922Z,13.68
2022-10-22T02:36:57.490Z,13.73
2022-10-22T02:39:28.293Z,13.79
2022-10-22T02:41:58.338Z,13.65
2022-10-22T02:44:28.198Z,13.40
2022-10-22T02:47:01.605Z,13.43
2022-10-22T02:49:31.503Z,13.36
2022-10-22T02:52:01.172Z,13.34
2022-10-22T02:54:30.919Z,13.53
2022-10-22T02:57:00.586Z,13.63
2022-10-22T02:59:30.328Z,13.57
2022-10-22T03:02:02.640Z,13.71
2022-10-22T03:04:32.609Z,13.74
2022-10-22T03:07:02.498Z,13.77
2022-10-22T03:09:32.347Z,13.69
2022-10-22T03:12:02.093Z,13.73
2022-10-22T03:14:31.804Z,13.69
2022-10-22T03:17:04.196Z,13.63
2022-10-22T03:19:34.179Z,13.54
2022-10-22T03:22:06.061Z,13.45
2022-10-22T03:24:39.482Z,13.51
2022-10-22T03:27:09.325Z,13.57
2022-10-22T03:29:41.782Z,13.56
2022-10-22T03:32:14.113Z,13.58
2022-10-22T03:34:43.824Z,13.66
2022-10-22T03:37:13.963Z,13.64
2022-10-22T03:39:44.128Z,13.56
2022-10-22T03:42:13.976Z,13.53
2022-10-22T03:44:44.019Z,13.45
2022-10-22T03:47:17.562Z,13.39
2022-10-22T03:49:47.257Z,13.41
2022-10-22T03:52:17.602Z,13.47
2022-10-22T03:54:47.418Z,13.61
2022-10-22T03:57:17.780Z,13.63
2022-10-22T03:59:51.065Z,13.62
2022-10-22T04:02:23.402Z,13.64
2022-10-22T04:04:53.063Z,13.63
2022-10-22T04:07:22.757Z,13.51
2022-10-22T04:09:52.434Z,13.46
2022-10-22T04:12:22.215Z,13.46
2022-10-22T04:14:51.955Z,13.27
2022-10-22T04:17:24.278Z,13.25
2022-10-22T04:19:54.012Z,13.44
2022-10-22T04:22:23.681Z,13.50
2022-10-22T04:24:53.401Z,13.38
2022-10-22T04:27:23.124Z,13.56
2022-10-22T04:29:52.862Z,13.44
2022-10-22T04:32:25.132Z,13.39
2022-10-22T04:34:54.849Z,13.43
2022-10-22T04:37:24.752Z,13.47
2022-10-22T04:39:57.300Z,13.41
2022-10-22T04:42:27.871Z,13.43
2022-10-22T04:44:57.555Z,13.36
2022-10-22T04:47:29.993Z,13.42
2022-10-22T04:49:59.741Z,13.30
2022-10-22T04:52:29.486Z,13.21
2022-10-22T04:54:59.128Z,13.26
2022-10-22T04:57:32.614Z,13.20
2022-10-22T05:00:02.245Z,13.29
2022-10-22T05:02:34.569Z,13.25
2022-10-22T05:05:05.381Z,13.15
2022-10-22T05:07:35.139Z,13.15
2022-10-22T05:10:05.150Z,13.28
2022-10-22T05:12:34.879Z,13.28
2022-10-22T05:15:04.665Z,13.38
2022-10-22T05:17:39.158Z,13.20
2022-10-22T05:20:10.727Z,13.12
2022-10-22T05:22:40.494Z,13.20
2022-10-22T05:25:12.345Z,13.32
2022-10-22T05:27:42.256Z,13.44
2022-10-22T05:30:12.883Z,13.35
2022-10-22T05:32:45.242Z,13.20
2022-10-22T05:35:14.935Z,13.36
2022-10-22T05:37:44.660Z,13.33
2022-10-22T05:40:26.463Z,13.22
2022-10-22T05:42:56.854Z,13.26
2022-10-22T05:45:26.552Z,13.30
2022-10-22T05:47:58.990Z,13.49
2022-10-22T05:50:28.768Z,13.40
2022-10-22T05:52:58.651Z,13.49
2022-10-22T05:55:28.347Z,13.51
2022-10-22T05:57:58.037Z,13.53
2022-10-22T06:00:27.791Z,13.52
2022-10-22T06:03:00.115Z,13.45
2022-10-22T06:05:29.874Z,13.46
2022-10-22T06:08:00.779Z,13.41
2022-10-22T06:10:30.895Z,13.43
2022-10-22T06:13:01.618Z,13.47
2022-10-22T06:15:31.446Z,13.58
2022-10-22T06:18:03.708Z,13.61
2022-10-22T06:20:33.427Z,13.47
2022-10-22T06:23:03.119Z,13.46
2022-10-22T06:25:32.867Z,13.36
2022-10-22T06:28:02.574Z,13.54
2022-10-22T06:30:32.257Z,13.60
2022-10-22T06:33:04.571Z,13.51
2022-10-22T06:35:34.283Z,13.43
2022-10-22T06:38:03.970Z,13.46
2022-10-22T06:40:33.739Z,13.44
2022-10-22T06:43:03.664Z,13.40
2022-10-22T06:45:33.403Z,13.49
2022-10-22T06:48:05.775Z,13.38
2022-10-22T06:50:37.094Z,13.39
2022-10-22T06:53:06.943Z,13.48
2022-10-22T06:55:38.643Z,13.51
2022-10-22T06:58:08.369Z,13.54
2022-10-22T07:00:38.560Z,13.58
2022-10-22T07:03:14.958Z,13.53
2022-10-22T07:05:45.244Z,13.62
2022-10-22T07:08:15.033Z,13.58
2022-10-22T07:10:44.792Z,13.62
2022-10-22T07:13:14.537Z,13.73
2022-10-22T07:15:44.236Z,13.71
2022-10-22T07:18:16.603Z,13.83
2022-10-22T07:20:46.323Z,13.65
2022-10-22T07:23:15.995Z,13.79
2022-10-22T07:25:45.928Z,13.86
2022-10-22T07:28:16.069Z,13.85
2022-10-22T07:30:45.887Z,13.94
2022-10-22T07:33:18.498Z,13.85
2022-10-22T07:35:48.390Z,13.98
2022-10-22T07:38:18.116Z,14.11
2022-10-22T07:40:47.773Z,14.17
2022-10-22T07:43:17.557Z,14.00
2022-10-22T07:45:47.969Z,14.03
2022-10-22T07:48:20.591Z,14.09
2022-10-22T07:50:52.207Z,13.99
2022-10-22T07:53:22.260Z,14.07
2022-10-22T07:55:52.336Z,14.03
2022-10-22T07:58:23.165Z,14.02
2022-10-22T08:00:53.457Z,13.96
2022-10-22T08:03:25.855Z,13.97
2022-10-22T08:05:56.661Z,13.97
2022-10-22T08:08:29.719Z,14.09
2022-10-22T08:11:02.264Z,14.44
2022-10-22T08:13:33.070Z,14.52
2022-10-22T08:16:03.320Z,14.54
2022-10-22T08:18:35.691Z,14.46
2022-10-22T08:21:05.393Z,14.69
2022-10-22T08:23:35.045Z,15.21
2022-10-22T08:26:05.705Z,15.81
2022-10-22T08:28:37.233Z,15.76
2022-10-22T08:31:07.843Z,15.46
2022-10-22T08:33:41.865Z,15.44
2022-10-22T08:36:12.414Z,15.40
2022-10-22T08:38:42.207Z,15.66
2022-10-22T08:41:15.704Z,16.35
2022-10-22T08:44:02.555Z,16.81
2022-10-22T08:46:42.070Z,16.88
2022-10-22T08:49:21.789Z,17.45
2022-10-22T08:51:52.206Z,17.48
2022-10-22T08:54:30.384Z,17.51
2022-10-22T08:57:09.904Z,17.83
2022-10-22T08:59:48.136Z,17.81
2022-10-22T09:02:30.388Z,17.75
2022-10-22T09:05:16.318Z,17.43
2022-10-22T09:07:50.309Z,17.41
2022-10-22T09:10:21.374Z,17.49
2022-10-22T09:12:51.583Z,17.57
2022-10-22T09:15:22.998Z,17.65
2022-10-22T09:18:09.014Z,17.69
2022-10-22T09:20:48.534Z,17.64
2022-10-22T09:23:32.039Z,17.70
2022-10-22T09:26:03.106Z,17.56
2022-10-22T09:28:32.799Z,17.81
2022-10-22T09:31:02.467Z,17.97
2022-10-22T09:33:34.180Z,18.23
2022-10-22T09:36:08.095Z,18.27
2022-10-22T09:38:43.253Z,18.39
2022-10-22T09:41:16.002Z,18.25
2022-10-22T09:43:45.879Z,18.32
2022-10-22T09:46:19.412Z,18.55
2022-10-22T09:48:53.023Z,18.50
2022-10-22T09:51:28.292Z,18.55
2022-10-22T09:54:01.139Z,18.79
2022-10-22T09:56:37.227Z,19.12
2022-10-22T09:59:07.020Z,19.45
2022-10-22T10:01:40.975Z,20.09
2022-10-22T10:04:12.888Z,20.40
2022-10-22T10:06:47.499Z,21.25
2022-10-22T10:09:19.628Z,22.28
2022-10-22T10:11:58.211Z,23.10
2022-10-22T10:14:40.371Z,24.04
2022-10-22T10:17:19.930Z,24.78
2022-10-22T10:20:06.217Z,25.29
2022-10-22T10:22:51.971Z,25.97
2022-10-22T10:25:44.277Z,26.31
2022-10-22T10:28:28.644Z,26.33
2022-10-22T10:31:09.465Z,26.73
2022-10-22T10:33:47.925Z,26.91
2022-10-22T10:36:26.729Z,27.44
2022-10-22T10:39:06.150Z,27.66
2022-10-22T10:41:46.297Z,28.18
2022-10-22T10:44:37.658Z,29.26
2022-10-22T10:47:18.691Z,30.04
2022-10-22T10:49:49.495Z,29.33
2022-10-22T10:52:24.875Z,27.10
2022-10-22T10:55:17.919Z,24.80
2022-10-22T10:57:55.496Z,23.34
2022-10-22T11:00:27.932Z,22.78
2022-10-22T11:03:33.743Z,22.13
2022-10-22T11:06:06.682Z,21.24
2022-10-22T11:08:42.037Z,20.69
2022-10-22T11:11:20.026Z,20.83
2022-10-22T11:13:55.701Z,20.27
2022-10-22T11:16:32.577Z,20.83
2022-10-22T11:19:10.045Z,23.77
2022-10-22T11:21:44.672Z,26.10
2022-10-22T11:24:25.143Z,28.14
2022-10-22T11:27:05.915Z,30.01
2022-10-22T11:29:41.410Z,30.91
2022-10-22T11:32:16.089Z,31.25
2022-10-22T11:34:52.151Z,30.26
2022-10-22T11:37:22.287Z,29.54
2022-10-22T11:39:55.501Z,29.87
2022-10-22T11:42:39.465Z,30.07
2022-10-22T11:45:30.808Z,31.58
2022-10-22T11:48:07.827Z,31.19
2022-10-22T11:50:50.966Z,31.34
2022-10-22T11:53:23.886Z,30.70
2022-10-22T11:55:55.746Z,31.72
2022-10-22T11:58:39.448Z,31.49
2022-10-22T12:01:27.497Z,31.35
2022-10-22T12:04:25.220Z,31.04
2022-10-22T12:07:00.888Z,30.37
2022-10-22T12:09:33.709Z,29.99
2022-10-22T12:12:17.861Z,29.85
2022-10-22T12:14:56.571Z,28.22
2022-10-22T12:17:27.730Z,27.68
2022-10-22T12:20:04.250Z,26.81
2022-10-22T12:22:37.735Z,25.25
2022-10-22T12:25:20.183Z,24.05
2022-10-22T12:27:55.040Z,22.72
2022-10-22T12:30:27.426Z,21.99
2022-10-22T12:33:00.395Z,21.45
2022-10-22T12:35:35.812Z,21.22
2022-10-22T12:38:11.249Z,20.97
2022-10-22T12:40:47.531Z,20.47
2022-10-22T12:43:20.311Z,20.59
2022-10-22T12:45:52.335Z,21.00
2022-10-22T12:48:25.116Z,20.60
2022-10-22T12:50:59.707Z,20.22
2022-10-22T12:53:32.485Z,19.86
2022-10-22T12:56:05.451Z,19.53
2022-10-22T12:58:41.195Z,19.35
2022-10-22T13:01:14.424Z,19.19
2022-10-22T13:03:47.562Z,19.15
2022-10-22T13:06:27.274Z,18.92
2022-10-22T13:09:06.269Z,19.04
2022-10-22T13:11:37.763Z,19.30
2022-10-22T13:14:08.792Z,19.36
2022-10-22T13:16:38.519Z,19.56
2022-10-22T13:19:08.187Z,19.79
2022-10-22T13:21:41.801Z,19.72
2022-10-22T13:24:23.933Z,19.51
2022-10-22T13:26:56.044Z,19.47
2022-10-22T13:29:27.295Z,19.62
2022-10-22T13:31:57.243Z,19.78
2022-10-22T13:34:28.786Z,19.79
2022-10-22T13:37:01.139Z,19.88
2022-10-22T13:39:32.905Z,19.82
2022-10-22T13:42:02.587Z,19.80
2022-10-22T13:44:32.191Z,19.81
2022-10-22T13:47:01.758Z,19.70
2022-10-22T13:49:31.445Z,19.70
2022-10-22T13:52:03.610Z,19.67
2022-10-22T13:54:33.195Z,19.63
2022-10-22T13:57:02.791Z,19.69
2022-10-22T13:59:32.542Z,19.70
2022-10-22T14:02:06.473Z,19.68
2022-10-22T14:04:38.956Z,19.59
2022-10-22T14:07:15.768Z,19.32
2022-10-22T14:09:45.830Z,19.28
2022-10-22T14:12:16.975Z,19.19
2022-10-22T14:14:46.770Z,19.16
2022-10-22T14:17:19.396Z,19.20
2022-10-22T14:19:52.032Z,19.28
2022-10-22T14:22:25.864Z,19.34
2022-10-22T14:24:55.601Z,19.30
2022-10-22T14:27:25.194Z,19.35
2022-10-22T14:29:59.418Z,19.35
2022-10-22T14:32:31.157Z,19.28
2022-10-22T14:35:01.542Z,19.09
2022-10-22T14:37:33.812Z,18.96
2022-10-22T14:40:03.510Z,18.77
2022-10-22T14:42:33.312Z,18.62
2022-10-22T14:45:02.958Z,18.64
2022-10-22T14:47:32.648Z,18.60
2022-10-22T14:50:02.299Z,18.63
2022-10-22T14:52:34.579Z,18.73
2022-10-22T14:55:04.295Z,18.77
2022-10-22T14:57:34.000Z,18.83
2022-10-22T15:00:03.762Z,18.90
2022-10-22T15:02:33.475Z,18.87
2022-10-22T15:05:04.350Z,18.90
2022-10-22T15:07:36.682Z,18.89
2022-10-22T15:10:07.806Z,18.84
2022-10-22T15:12:37.770Z,18.75
2022-10-22T15:15:08.667Z,18.68
2022-10-22T15:17:38.436Z,18.77
2022-10-22T15:20:09.676Z,18.74
2022-10-22T15:22:42.230Z,18.52
2022-10-22T15:25:12.765Z,18.52
2022-10-22T15:27:44.689Z,18.57
2022-10-22T15:30:16.532Z,18.53
2022-10-22T15:32:46.225Z,18.51
2022-10-22T15:35:15.845Z,18.43
2022-10-22T15:37:48.177Z,18.45
2022-10-22T15:40:17.942Z,18.38
2022-10-22T15:42:47.562Z,18.30
2022-10-22T15:45:17.880Z,18.17
2022-10-22T15:47:49.288Z,18.04
2022-10-22T15:50:19.632Z,18.01
2022-10-22T15:52:51.880Z,17.83
2022-10-22T15:55:21.543Z,17.60
2022-10-22T15:57:55.156Z,17.45
2022-10-22T16:00:25.680Z,17.31
2022-10-22T16:02:56.943Z,17.21
2022-10-22T16:05:26.635Z,17.07
2022-10-22T16:07:58.862Z,16.93
2022-10-22T16:10:28.568Z,16.81
2022-10-22T16:12:59.471Z,16.67
2022-10-22T16:15:29.093Z,16.57
2022-10-22T16:17:58.794Z,16.48
2022-10-22T16:20:28.554Z,16.39
2022-10-22T16:23:01.337Z,16.29
2022-10-22T16:25:31.664Z,16.34
2022-10-22T16:28:01.393Z,16.36
2022-10-22T16:30:31.164Z,16.35
2022-10-22T16:33:03.309Z,16.33
2022-10-22T16:35:33.619Z,16.25
2022-10-22T16:38:07.097Z,16.33
2022-10-22T16:40:36.778Z,16.15
2022-10-22T16:43:06.515Z,16.13
2022-10-22T16:45:36.209Z,16.09
2022-10-22T16:48:05.918Z,15.98
2022-10-22T16:50:35.532Z,16.06
2022-10-22T16:53:07.768Z,16.06
2022-10-22T16:55:39.093Z,16.08
2022-10-22T16:58:09.104Z,16.05
2022-10-22T17:00:39.677Z,16.10
2022-10-22T17:03:09.775Z,16.14
2022-10-22T17:05:39.540Z,16.10
2022-10-22T17:08:11.846Z,16.08
2022-10-22T17:10:42.185Z,16.16
2022-10-22T17:13:11.811Z,16.19
2022-10-22T17:15:41.736Z,16.14
2022-10-22T17:18:11.528Z,16.11
2022-10-22T17:20:44.090Z,16.09
2022-10-22T17:23:16.320Z,16.00
2022-10-22T17:25:47.247Z,16.00
2022-10-22T17:28:16.950Z,15.88
2022-10-22T17:30:46.517Z,15.80
2022-10-22T17:33:16.073Z,15.74
2022-10-22T17:35:45.865Z,15.73
2022-10-22T17:38:18.063Z,15.73
2022-10-22T17:40:47.682Z,15.73
2022-10-22T17:43:17.336Z,15.69
2022-10-22T17:45:46.944Z,15.53
2022-10-22T17:48:16.517Z,15.58
2022-10-22T17:50:49.688Z,15.60
2022-10-22T17:53:24.223Z,15.57
2022-10-22T17:55:53.882Z,15.62
2022-10-22T17:58:23.411Z,15.59
2022-10-22T18:00:53.133Z,15.54
2022-10-22T18:03:23.245Z,15.63
2022-10-22T18:05:52.920Z,15.45
2022-10-22T18:08:25.723Z,15.48
2022-10-22T18:10:55.334Z,15.47
2022-10-22T18:13:25.142Z,15.48
2022-10-22T18:15:57.635Z,15.43
2022-10-22T18:18:27.284Z,15.31
2022-10-22T18:20:56.900Z,15.30
2022-10-22T18:23:29.609Z,15.39
2022-10-22T18:25:59.236Z,15.40
2022-10-22T18:28:28.851Z,15.32
2022-10-22T18:30:58.419Z,15.38
2022-10-22T18:33:28.163Z,15.27
2022-10-22T18:35:57.733Z,15.39
2022-10-22T18:38:29.945Z,15.47
2022-10-22T18:40:59.481Z,15.25
2022-10-22T18:43:29.357Z,15.05
2022-10-22T18:45:58.951Z,15.13
2022-10-22T18:48:28.670Z,15.13
2022-10-22T18:51:03.305Z,15.23
2022-10-22T18:53:36.386Z,15.17
2022-10-22T18:56:09.319Z,14.94
2022-10-22T18:58:41.038Z,14.80
2022-10-22T19:01:11.910Z,15.05
2022-10-22T19:03:41.612Z,14.99
2022-10-22T19:06:11.220Z,14.90
2022-10-22T19:08:45.799Z,14.87
2022-10-22T19:11:19.738Z,14.89
2022-10-22T19:13:49.491Z,14.88
2022-10-22T19:16:23.736Z,14.89
2022-10-22T19:18:54.764Z,15.01
2022-10-22T19:21:24.735Z,14.87
2022-10-22T19:23:58.116Z,14.91
2022-10-22T19:26:28.307Z,14.88
2022-10-22T19:28:59.264Z,14.78
2022-10-22T19:31:31.412Z,14.87
2022-10-22T19:34:01.592Z,14.84
2022-10-22T19:36:32.921Z,14.71
2022-10-22T19:39:06.973Z,14.65
2022-10-22T19:41:36.935Z,14.56
2022-10-22T19:44:06.954Z,14.81
2022-10-22T19:46:36.584Z,14.60
2022-10-22T19:49:07.271Z,14.55
2022-10-22T19:51:37.837Z,14.70
2022-10-22T19:54:15.808Z,14.59
2022-10-22T19:56:45.471Z,14.52
2022-10-22T19:59:16.643Z,14.48
2022-10-22T20:01:46.572Z,14.45
2022-10-22T20:04:19.115Z,14.53
2022-10-22T20:06:48.872Z,14.55
2022-10-22T20:09:21.163Z,14.50
2022-10-22T20:11:50.980Z,14.54
2022-10-22T20:14:20.743Z,14.72
2022-10-22T20:16:50.334Z,14.66
2022-10-22T20:19:19.942Z,14.60
2022-10-22T20:21:50.819Z,14.71
2022-10-22T20:24:23.174Z,14.65
2022-10-22T20:26:52.977Z,14.71
2022-10-22T20:29:22.594Z,14.58
2022-10-22T20:31:52.267Z,14.46
2022-10-22T20:34:21.917Z,14.40
2022-10-22T20:36:51.639Z,14.40
2022-10-22T20:39:23.887Z,14.38
2022-10-22T20:41:53.858Z,14.42
2022-10-22T20:44:23.488Z,14.44
2022-10-22T20:46:54.351Z,14.41
2022-10-22T20:49:24.558Z,14.45
2022-10-22T20:51:54.217Z,14.46
2022-10-22T20:54:26.428Z,14.48
2022-10-22T20:56:56.354Z,14.56
2022-10-22T20:59:32.633Z,14.45
2022-10-22T21:02:03.502Z,14.39
2022-10-22T21:04:33.735Z,14.43
2022-10-22T21:07:03.876Z,14.42
2022-10-22T21:09:37.337Z,14.52
2022-10-22T21:12:07.502Z,14.48
2022-10-22T21:14:37.174Z,14.55
2022-10-22T21:17:08.231Z,14.42
2022-10-22T21:19:37.992Z,14.32
2022-10-22T21:22:07.737Z,14.30
2022-10-22T21:24:40.034Z,14.34
2022-10-22T21:27:09.956Z,14.48
2022-10-22T21:29:39.644Z,14.46
2022-10-22T21:32:09.585Z,14.36
2022-10-22T21:34:39.278Z,14.34
2022-10-22T21:37:08.968Z,14.29
2022-10-22T21:39:42.267Z,14.26
2022-10-22T21:42:12.039Z,14.10
2022-10-22T21:44:41.740Z,14.20
2022-10-22T21:47:11.365Z,14.09
2022-10-22T21:49:41.074Z,14.07
2022-10-22T21:52:10.713Z,13.96
2022-10-22T21:54:43.199Z,13.79
2022-10-22T21:57:12.871Z,13.78
2022-10-22T21:59:42.605Z,13.85
2022-10-22T22:02:12.329Z,13.90
2022-10-22T22:04:42.510Z,13.71
2022-10-22T22:07:12.184Z,13.62
2022-10-22T22:09:44.527Z,13.54
2022-10-22T22:12:14.494Z,13.66
2022-10-22T22:14:44.471Z,13.76
2022-10-22T22:17:14.342Z,13.83
2022-10-22T22:19:44.126Z,13.84
2022-10-22T22:22:13.829Z,13.85
2022-10-22T22:24:46.085Z,13.78
2022-10-22T22:27:17.526Z,13.82
2022-10-22T22:29:47.196Z,13.82
2022-10-22T22:32:16.794Z,13.86
2022-10-22T22:34:46.556Z,13.95
2022-10-22T22:37:16.104Z,13.88
2022-10-22T22:39:48.286Z,13.84
2022-10-22T22:42:17.894Z,13.78
2022-10-22T22:44:47.519Z,13.74
2022-10-22T22:47:17.119Z,13.78
2022-10-22T22:49:46.749Z,13.62
2022-10-22T22:52:16.439Z,13.56
2022-10-22T22:54:49.879Z,13.69
2022-10-22T22:57:19.521Z,13.50
2022-10-22T22:59:52.580Z,13.50
2022-10-22T23:02:22.221Z,13.73
2022-10-22T23:04:51.865Z,13.79
2022-10-22T23:07:21.582Z,13.79
2022-10-22T23:09:53.734Z,13.78
2022-10-22T23:12:23.326Z,13.87
2022-10-22T23:14:53.287Z,13.83
2022-10-22T23:17:22.924Z,13.92
2022-10-22T23:19:52.721Z,13.87
2022-10-22T23:22:22.319Z,13.73
2022-10-22T23:24:54.582Z,13.62
2022-10-22T23:27:24.204Z,13.63
2022-10-22T23:29:53.880Z,13.59
2022-10-22T23:32:23.496Z,13.80
2022-10-22T23:34:53.125Z,13.76
2022-10-22T23:37:22.856Z,13.80
2022-10-22T23:39:55.095Z,13.69
2022-10-22T23:42:24.742Z,13.42
2022-10-22T23:44:54.388Z,13.59
2022-10-22T23:47:23.988Z,13.42
2022-10-22T23:49:53.624Z,13.41
2022-10-22T23:52:23.263Z,13.39
2022-10-22T23:54:55.482Z,13.57
2022-10-22T23:57:25.846Z,13.58
2022-10-22T23:59:56.195Z,13.42
